Strona główna
METAR-TAF:

METAR-TAF

Lotnisko :

Port lotniczy Phetchabun

Phetchabun, Tajlandia

Szerokość geograficzna: 16-40-33N, Długość geograficzna: 101-11-42E, wysokość: 137 m

Aktualna obserwacja pogody

Raport powstał 48 minut temu, godzina 03:00 UTC
Wiatr 7 kt od północ
Temperatura 21°C
Wilgotność 46%
Ciśnienie 1018 hPa
Widzialność: 7000 m

METAR: VTPB 100300Z 35007KT 7000 NSC 21/09 Q1018 NOSIG

czas: 10:48 (03:48 UTC)

Prognoza

Raport powstał 4 godziny i 48 minut temu, godzina 23:00 UTC
Prognoza ważna od 10 godzina 00 UTC do 10 godzina 24 UTC
Wiatr 5 kt od północ
Widzialność: 8000 m

TAF: VTPB 092300Z 1000/1024 01005KT 8000 NSC

Obserwacja i prognoza pogody dla ponad 4000 lotnisk (raport METAR i TAF).

Dostępne stacje oznaczono żółtymi i czerwonymi punktami na mapie.

Najedź kursorem aby zobaczyć nazwę stacji.

Kliknij aby zobaczyć obserwacje i prognozy pogody.

Aby zmienić mapę: kliknij na zielony przycisk z czarnym krzyżykiem, aby powiększyć; na zielony przycisk z myślnikiem, aby pomniejszyć; na zielone strzałki, aby przejść do map sąsiednich.


METAR-TAF: